sensor_id;sensor_type;location;lat;lon;timestamp;P1;durP1;ratioP1;P2;durP2;ratioP2
49193;SDS011;35029;50.804;12.866;2023-10-09T00:01:42;2.45;;;2.05;;
49193;SDS011;35029;50.804;12.866;2023-10-09T00:04:11;4.20;;;2.03;;
49193;SDS011;35029;50.804;12.866;2023-10-09T00:06:39;2.53;;;2.00;;
49193;SDS011;35029;50.804;12.866;2023-10-09T00:09:07;6.95;;;2.33;;
49193;SDS011;35029;50.804;12.866;2023-10-09T00:11:49;2.92;;;1.70;;
49193;SDS011;35029;50.804;12.866;2023-10-09T00:14:21;3.47;;;1.73;;
49193;SDS011;35029;50.804;12.866;2023-10-09T00:16:47;4.35;;;2.22;;
49193;SDS011;35029;50.804;12.866;2023-10-09T00:19:21;4.13;;;2.00;;
49193;SDS011;35029;50.804;12.866;2023-10-09T00:21:56;1.70;;;1.60;;
49193;SDS011;35029;50.804;12.866;2023-10-09T00:24:24;2.20;;;1.77;;
49193;SDS011;35029;50.804;12.866;2023-10-09T00:26:53;3.78;;;1.75;;
49193;SDS011;35029;50.804;12.866;2023-10-09T00:29:39;2.05;;;1.88;;
49193;SDS011;35029;50.804;12.866;2023-10-09T00:32:12;2.17;;;1.90;;
49193;SDS011;35029;50.804;12.866;2023-10-09T00:34:48;2.38;;;2.10;;
49193;SDS011;35029;50.804;12.866;2023-10-09T00:37:16;2.47;;;1.90;;
49193;SDS011;35029;50.804;12.866;2023-10-09T00:39:43;2.00;;;1.70;;
49193;SDS011;35029;50.804;12.866;2023-10-09T00:42:12;2.08;;;1.83;;
49193;SDS011;35029;50.804;12.866;2023-10-09T00:44:47;2.90;;;1.58;;
49193;SDS011;35029;50.804;12.866;2023-10-09T00:47:14;3.08;;;1.58;;
49193;SDS011;35029;50.804;12.866;2023-10-09T00:50:00;2.88;;;1.60;;
49193;SDS011;35029;50.804;12.866;2023-10-09T00:52:56;3.33;;;1.83;;
49193;SDS011;35029;50.804;12.866;2023-10-09T00:55:34;2.33;;;2.10;;
49193;SDS011;35029;50.804;12.866;2023-10-09T00:58:08;3.25;;;2.15;;
49193;SDS011;35029;50.804;12.866;2023-10-09T01:00:40;1.75;;;1.65;;
49193;SDS011;35029;50.804;12.866;2023-10-09T01:03:10;2.42;;;2.22;;
49193;SDS011;35029;50.804;12.866;2023-10-09T01:05:50;4.57;;;2.33;;
49193;SDS011;35029;50.804;12.866;2023-10-09T01:08:34;6.18;;;3.22;;
49193;SDS011;35029;50.804;12.866;2023-10-09T01:11:06;3.17;;;2.03;;
49193;SDS011;35029;50.804;12.866;2023-10-09T01:13:40;2.95;;;2.63;;
49193;SDS011;35029;50.804;12.866;2023-10-09T01:16:12;3.00;;;2.33;;
49193;SDS011;35029;50.804;12.866;2023-10-09T01:18:41;3.22;;;2.67;;
49193;SDS011;35029;50.804;12.866;2023-10-09T01:21:07;3.70;;;2.58;;
49193;SDS011;35029;50.804;12.866;2023-10-09T01:23:33;3.25;;;2.60;;
49193;SDS011;35029;50.804;12.866;2023-10-09T01:25:58;4.75;;;2.60;;
49193;SDS011;35029;50.804;12.866;2023-10-09T01:28:24;2.42;;;2.22;;
49193;SDS011;35029;50.804;12.866;2023-10-09T01:30:51;2.90;;;2.60;;
49193;SDS011;35029;50.804;12.866;2023-10-09T01:33:17;5.90;;;2.90;;
49193;SDS011;35029;50.804;12.866;2023-10-09T01:35:53;4.30;;;2.30;;
49193;SDS011;35029;50.804;12.866;2023-10-09T01:41:17;3.17;;;2.63;;
49193;SDS011;35029;50.804;12.866;2023-10-09T01:43:45;4.43;;;2.38;;
49193;SDS011;35029;50.804;12.866;2023-10-09T01:46:11;3.67;;;2.50;;
49193;SDS011;35029;50.804;12.866;2023-10-09T01:48:37;2.50;;;2.30;;
49193;SDS011;35029;50.804;12.866;2023-10-09T01:51:08;2.42;;;2.22;;
49193;SDS011;35029;50.804;12.866;2023-10-09T01:53:40;2.53;;;2.33;;
49193;SDS011;35029;50.804;12.866;2023-10-09T01:56:11;2.72;;;2.35;;
49193;SDS011;35029;50.804;12.866;2023-10-09T01:58:40;5.05;;;2.28;;
49193;SDS011;35029;50.804;12.866;2023-10-09T02:01:06;3.92;;;2.58;;
49193;SDS011;35029;50.804;12.866;2023-10-09T02:03:32;2.45;;;2.20;;
49193;SDS011;35029;50.804;12.866;2023-10-09T02:06:02;2.83;;;2.20;;
49193;SDS011;35029;50.804;12.866;2023-10-09T02:08:30;3.17;;;2.00;;
49193;SDS011;35029;50.804;12.866;2023-10-09T02:11:00;3.00;;;2.10;;
49193;SDS011;35029;50.804;12.866;2023-10-09T02:13:27;3.30;;;2.42;;
49193;SDS011;35029;50.804;12.866;2023-10-09T02:15:59;2.10;;;1.90;;
49193;SDS011;35029;50.804;12.866;2023-10-09T02:18:41;2.60;;;2.40;;
49193;SDS011;35029;50.804;12.866;2023-10-09T02:21:21;4.32;;;2.72;;
49193;SDS011;35029;50.804;12.866;2023-10-09T02:24:05;2.00;;;1.90;;
49193;SDS011;35029;50.804;12.866;2023-10-09T02:26:51;4.10;;;2.58;;
49193;SDS011;35029;50.804;12.866;2023-10-09T02:29:16;4.22;;;2.60;;
49193;SDS011;35029;50.804;12.866;2023-10-09T02:31:45;5.75;;;3.45;;
49193;SDS011;35029;50.804;12.866;2023-10-09T02:36:47;11.05;;;5.35;;
49193;SDS011;35029;50.804;12.866;2023-10-09T02:39:24;6.85;;;5.88;;
49193;SDS011;35029;50.804;12.866;2023-10-09T02:41:51;10.95;;;6.45;;
49193;SDS011;35029;50.804;12.866;2023-10-09T02:44:33;11.48;;;6.45;;
49193;SDS011;35029;50.804;12.866;2023-10-09T02:47:04;14.40;;;6.97;;
49193;SDS011;35029;50.804;12.866;2023-10-09T02:49:37;14.00;;;7.45;;
49193;SDS011;35029;50.804;12.866;2023-10-09T02:52:05;11.65;;;8.18;;
49193;SDS011;35029;50.804;12.866;2023-10-09T02:54:33;15.50;;;7.63;;
49193;SDS011;35029;50.804;12.866;2023-10-09T02:57:07;10.68;;;7.63;;
49193;SDS011;35029;50.804;12.866;2023-10-09T02:59:36;13.25;;;8.07;;
49193;SDS011;35029;50.804;12.866;2023-10-09T03:02:06;17.00;;;8.43;;
49193;SDS011;35029;50.804;12.866;2023-10-09T03:04:34;9.80;;;7.78;;
49193;SDS011;35029;50.804;12.866;2023-10-09T03:07:00;17.90;;;9.52;;
49193;SDS011;35029;50.804;12.866;2023-10-09T03:09:26;10.68;;;9.10;;
49193;SDS011;35029;50.804;12.866;2023-10-09T03:11:57;16.67;;;9.40;;
49193;SDS011;35029;50.804;12.866;2023-10-09T03:14:43;17.35;;;10.68;;
49193;SDS011;35029;50.804;12.866;2023-10-09T03:17:09;15.15;;;10.68;;
49193;SDS011;35029;50.804;12.866;2023-10-09T03:19:39;21.90;;;11.27;;
49193;SDS011;35029;50.804;12.866;2023-10-09T03:22:08;18.58;;;10.38;;
49193;SDS011;35029;50.804;12.866;2023-10-09T03:24:37;16.30;;;9.98;;
49193;SDS011;35029;50.804;12.866;2023-10-09T03:27:10;19.17;;;10.40;;
49193;SDS011;35029;50.804;12.866;2023-10-09T03:29:36;17.45;;;9.40;;
49193;SDS011;35029;50.804;12.866;2023-10-09T03:32:02;17.85;;;10.73;;
49193;SDS011;35029;50.804;12.866;2023-10-09T03:34:28;14.13;;;10.10;;
49193;SDS011;35029;50.804;12.866;2023-10-09T03:36:56;18.00;;;10.60;;
49193;SDS011;35029;50.804;12.866;2023-10-09T03:39:36;17.90;;;10.07;;
49193;SDS011;35029;50.804;12.866;2023-10-09T03:42:06;15.35;;;10.15;;
49193;SDS011;35029;50.804;12.866;2023-10-09T03:44:37;27.83;;;10.80;;
49193;SDS011;35029;50.804;12.866;2023-10-09T03:47:07;14.63;;;9.70;;
49193;SDS011;35029;50.804;12.866;2023-10-09T03:49:37;13.32;;;9.73;;
49193;SDS011;35029;50.804;12.866;2023-10-09T03:52:04;13.75;;;9.57;;
49193;SDS011;35029;50.804;12.866;2023-10-09T03:54:32;17.63;;;9.57;;
49193;SDS011;35029;50.804;12.866;2023-10-09T03:57:00;20.92;;;9.38;;
49193;SDS011;35029;50.804;12.866;2023-10-09T03:59:27;14.50;;;8.85;;
49193;SDS011;35029;50.804;12.866;2023-10-09T04:02:16;15.60;;;9.63;;
49193;SDS011;35029;50.804;12.866;2023-10-09T04:04:42;17.02;;;9.38;;
49193;SDS011;35029;50.804;12.866;2023-10-09T04:07:12;11.83;;;8.97;;
49193;SDS011;35029;50.804;12.866;2023-10-09T04:09:41;16.85;;;9.07;;
49193;SDS011;35029;50.804;12.866;2023-10-09T04:12:10;14.02;;;8.48;;
49193;SDS011;35029;50.804;12.866;2023-10-09T04:14:36;15.98;;;9.15;;
49193;SDS011;35029;50.804;12.866;2023-10-09T04:17:12;13.80;;;8.48;;
49193;SDS011;35029;50.804;12.866;2023-10-09T04:19:47;14.93;;;8.82;;
49193;SDS011;35029;50.804;12.866;2023-10-09T04:22:16;13.80;;;8.02;;
49193;SDS011;35029;50.804;12.866;2023-10-09T04:24:52;11.77;;;7.82;;
49193;SDS011;35029;50.804;12.866;2023-10-09T04:27:38;13.85;;;9.00;;
49193;SDS011;35029;50.804;12.866;2023-10-09T04:30:04;15.13;;;8.70;;
49193;SDS011;35029;50.804;12.866;2023-10-09T04:32:32;12.40;;;8.32;;
49193;SDS011;35029;50.804;12.866;2023-10-09T04:35:00;15.63;;;8.90;;
49193;SDS011;35029;50.804;12.866;2023-10-09T04:37:44;14.40;;;9.02;;
49193;SDS011;35029;50.804;12.866;2023-10-09T04:40:13;14.40;;;8.30;;
49193;SDS011;35029;50.804;12.866;2023-10-09T04:42:59;17.38;;;9.68;;
49193;SDS011;35029;50.804;12.866;2023-10-09T04:45:31;17.67;;;9.00;;
49193;SDS011;35029;50.804;12.866;2023-10-09T04:48:08;12.85;;;9.10;;
49193;SDS011;35029;50.804;12.866;2023-10-09T04:50:35;14.05;;;8.80;;
49193;SDS011;35029;50.804;12.866;2023-10-09T04:53:03;13.52;;;9.13;;
49193;SDS011;35029;50.804;12.866;2023-10-09T04:58:23;13.60;;;8.88;;
49193;SDS011;35029;50.804;12.866;2023-10-09T05:00:53;20.60;;;9.55;;
49193;SDS011;35029;50.804;12.866;2023-10-09T05:03:25;17.38;;;9.20;;
49193;SDS011;35029;50.804;12.866;2023-10-09T05:06:06;16.85;;;10.27;;
49193;SDS011;35029;50.804;12.866;2023-10-09T05:09:07;17.38;;;10.15;;
49193;SDS011;35029;50.804;12.866;2023-10-09T05:11:34;15.55;;;10.00;;
49193;SDS011;35029;50.804;12.866;2023-10-09T05:14:21;16.33;;;10.05;;
49193;SDS011;35029;50.804;12.866;2023-10-09T05:16:52;17.65;;;9.60;;
49193;SDS011;35029;50.804;12.866;2023-10-09T05:19:26;19.48;;;9.95;;
49193;SDS011;35029;50.804;12.866;2023-10-09T05:22:12;15.05;;;9.82;;
49193;SDS011;35029;50.804;12.866;2023-10-09T05:25:07;12.23;;;9.10;;
49193;SDS011;35029;50.804;12.866;2023-10-09T05:27:41;16.95;;;10.13;;
49193;SDS011;35029;50.804;12.866;2023-10-09T05:30:16;13.25;;;9.25;;
49193;SDS011;35029;50.804;12.866;2023-10-09T05:32:55;14.68;;;9.13;;
49193;SDS011;35029;50.804;12.866;2023-10-09T05:35:24;21.88;;;10.18;;
49193;SDS011;35029;50.804;12.866;2023-10-09T05:38:24;13.33;;;9.87;;
49193;SDS011;35029;50.804;12.866;2023-10-09T05:40:50;12.93;;;8.27;;
49193;SDS011;35029;50.804;12.866;2023-10-09T05:43:19;19.27;;;10.05;;
49193;SDS011;35029;50.804;12.866;2023-10-09T05:46:04;16.85;;;11.07;;
49193;SDS011;35029;50.804;12.866;2023-10-09T05:48:34;16.42;;;9.57;;
49193;SDS011;35029;50.804;12.866;2023-10-09T05:51:03;17.75;;;10.63;;
49193;SDS011;35029;50.804;12.866;2023-10-09T05:53:52;15.40;;;9.75;;
49193;SDS011;35029;50.804;12.866;2023-10-09T05:56:37;20.58;;;11.27;;
49193;SDS011;35029;50.804;12.866;2023-10-09T05:59:21;17.67;;;10.63;;
49193;SDS011;35029;50.804;12.866;2023-10-09T06:02:05;15.95;;;9.85;;
49193;SDS011;35029;50.804;12.866;2023-10-09T06:05:03;18.17;;;10.50;;
49193;SDS011;35029;50.804;12.866;2023-10-09T06:07:49;14.85;;;9.68;;
49193;SDS011;35029;50.804;12.866;2023-10-09T06:10:29;17.48;;;11.00;;
49193;SDS011;35029;50.804;12.866;2023-10-09T06:13:05;18.95;;;10.07;;
49193;SDS011;35029;50.804;12.866;2023-10-09T06:15:37;17.33;;;10.75;;
49193;SDS011;35029;50.804;12.866;2023-10-09T06:18:15;16.73;;;10.07;;
49193;SDS011;35029;50.804;12.866;2023-10-09T06:20:58;14.73;;;9.55;;
49193;SDS011;35029;50.804;12.866;2023-10-09T06:23:30;14.02;;;10.55;;
49193;SDS011;35029;50.804;12.866;2023-10-09T06:26:14;18.13;;;10.23;;
49193;SDS011;35029;50.804;12.866;2023-10-09T06:28:51;16.67;;;10.55;;
49193;SDS011;35029;50.804;12.866;2023-10-09T06:31:36;15.77;;;9.95;;
49193;SDS011;35029;50.804;12.866;2023-10-09T06:34:21;14.55;;;9.90;;
49193;SDS011;35029;50.804;12.866;2023-10-09T06:37:01;17.20;;;10.98;;
49193;SDS011;35029;50.804;12.866;2023-10-09T06:39:45;14.45;;;10.45;;
49193;SDS011;35029;50.804;12.866;2023-10-09T06:42:26;13.43;;;9.85;;
49193;SDS011;35029;50.804;12.866;2023-10-09T06:47:33;18.27;;;10.95;;
49193;SDS011;35029;50.804;12.866;2023-10-09T06:50:18;16.77;;;11.90;;
49193;SDS011;35029;50.804;12.866;2023-10-09T06:52:54;17.67;;;11.93;;
49193;SDS011;35029;50.804;12.866;2023-10-09T06:55:23;18.95;;;12.02;;
49193;SDS011;35029;50.804;12.866;2023-10-09T06:58:00;20.15;;;11.45;;
49193;SDS011;35029;50.804;12.866;2023-10-09T07:00:40;13.50;;;10.25;;
49193;SDS011;35029;50.804;12.866;2023-10-09T07:03:27;19.63;;;12.20;;
49193;SDS011;35029;50.804;12.866;2023-10-09T07:06:05;21.58;;;11.95;;
49193;SDS011;35029;50.804;12.866;2023-10-09T07:08:35;19.35;;;13.27;;
49193;SDS011;35029;50.804;12.866;2023-10-09T07:11:18;20.05;;;11.85;;
49193;SDS011;35029;50.804;12.866;2023-10-09T07:13:47;19.25;;;13.05;;
49193;SDS011;35029;50.804;12.866;2023-10-09T07:16:22;18.45;;;12.18;;
49193;SDS011;35029;50.804;12.866;2023-10-09T07:19:06;18.88;;;12.93;;
49193;SDS011;35029;50.804;12.866;2023-10-09T07:21:45;18.80;;;13.13;;
49193;SDS011;35029;50.804;12.866;2023-10-09T07:24:22;18.45;;;12.93;;
49193;SDS011;35029;50.804;12.866;2023-10-09T07:27:06;18.30;;;11.77;;
49193;SDS011;35029;50.804;12.866;2023-10-09T07:29:38;21.17;;;13.02;;
49193;SDS011;35029;50.804;12.866;2023-10-09T07:32:16;18.88;;;12.95;;
49193;SDS011;35029;50.804;12.866;2023-10-09T07:34:55;21.60;;;13.65;;
49193;SDS011;35029;50.804;12.866;2023-10-09T07:37:25;30.25;;;15.52;;
49193;SDS011;35029;50.804;12.866;2023-10-09T07:39:56;18.83;;;13.10;;
49193;SDS011;35029;50.804;12.866;2023-10-09T07:42:25;21.70;;;13.52;;
49193;SDS011;35029;50.804;12.866;2023-10-09T07:45:00;21.15;;;13.60;;
49193;SDS011;35029;50.804;12.866;2023-10-09T07:47:37;22.45;;;14.30;;
49193;SDS011;35029;50.804;12.866;2023-10-09T07:50:34;19.92;;;12.90;;
49193;SDS011;35029;50.804;12.866;2023-10-09T07:53:09;22.30;;;13.40;;
49193;SDS011;35029;50.804;12.866;2023-10-09T07:55:51;18.75;;;13.10;;
49193;SDS011;35029;50.804;12.866;2023-10-09T07:58:31;20.58;;;12.55;;
49193;SDS011;35029;50.804;12.866;2023-10-09T08:01:11;22.35;;;13.35;;
49193;SDS011;35029;50.804;12.866;2023-10-09T08:03:50;22.40;;;13.23;;
49193;SDS011;35029;50.804;12.866;2023-10-09T08:06:30;20.73;;;12.52;;
49193;SDS011;35029;50.804;12.866;2023-10-09T08:09:10;17.25;;;12.10;;
49193;SDS011;35029;50.804;12.866;2023-10-09T08:11:39;20.88;;;12.65;;
49193;SDS011;35029;50.804;12.866;2023-10-09T08:14:12;24.83;;;12.80;;
49193;SDS011;35029;50.804;12.866;2023-10-09T08:16:47;24.65;;;12.23;;
49193;SDS011;35029;50.804;12.866;2023-10-09T08:19:17;20.58;;;12.32;;
49193;SDS011;35029;50.804;12.866;2023-10-09T08:22:00;23.25;;;13.25;;
49193;SDS011;35029;50.804;12.866;2023-10-09T08:24:44;16.67;;;13.20;;
49193;SDS011;35029;50.804;12.866;2023-10-09T08:27:30;16.15;;;12.05;;
49193;SDS011;35029;50.804;12.866;2023-10-09T08:29:56;20.65;;;13.63;;
49193;SDS011;35029;50.804;12.866;2023-10-09T08:32:39;25.02;;;14.30;;
49193;SDS011;35029;50.804;12.866;2023-10-09T08:35:08;18.90;;;12.32;;
49193;SDS011;35029;50.804;12.866;2023-10-09T08:37:56;22.23;;;12.32;;
49193;SDS011;35029;50.804;12.866;2023-10-09T08:40:34;16.77;;;12.05;;
49193;SDS011;35029;50.804;12.866;2023-10-09T08:43:16;19.13;;;12.68;;
49193;SDS011;35029;50.804;12.866;2023-10-09T08:45:47;19.77;;;12.95;;
49193;SDS011;35029;50.804;12.866;2023-10-09T08:48:22;20.38;;;13.63;;
49193;SDS011;35029;50.804;12.866;2023-10-09T08:51:17;18.10;;;12.60;;
49193;SDS011;35029;50.804;12.866;2023-10-09T08:53:45;17.73;;;13.18;;
49193;SDS011;35029;50.804;12.866;2023-10-09T08:56:16;18.40;;;12.75;;
49193;SDS011;35029;50.804;12.866;2023-10-09T08:58:54;18.13;;;13.50;;
49193;SDS011;35029;50.804;12.866;2023-10-09T09:01:28;18.25;;;13.38;;
49193;SDS011;35029;50.804;12.866;2023-10-09T09:03:57;21.05;;;12.48;;
49193;SDS011;35029;50.804;12.866;2023-10-09T09:06:25;20.65;;;13.00;;
49193;SDS011;35029;50.804;12.866;2023-10-09T09:08:51;17.05;;;13.18;;
49193;SDS011;35029;50.804;12.866;2023-10-09T09:11:24;15.25;;;11.63;;
49193;SDS011;35029;50.804;12.866;2023-10-09T09:14:02;18.33;;;12.85;;
49193;SDS011;35029;50.804;12.866;2023-10-09T09:16:33;16.13;;;12.63;;
49193;SDS011;35029;50.804;12.866;2023-10-09T09:19:08;15.85;;;12.18;;
49193;SDS011;35029;50.804;12.866;2023-10-09T09:21:34;23.50;;;13.15;;
49193;SDS011;35029;50.804;12.866;2023-10-09T09:24:35;18.70;;;12.05;;
49193;SDS011;35029;50.804;12.866;2023-10-09T09:27:03;20.17;;;13.40;;
49193;SDS011;35029;50.804;12.866;2023-10-09T09:29:44;18.75;;;11.90;;
49193;SDS011;35029;50.804;12.866;2023-10-09T09:32:25;16.20;;;12.57;;
49193;SDS011;35029;50.804;12.866;2023-10-09T09:34:55;16.02;;;11.85;;
49193;SDS011;35029;50.804;12.866;2023-10-09T09:37:27;17.70;;;12.38;;
49193;SDS011;35029;50.804;12.866;2023-10-09T09:39:57;16.23;;;11.45;;
49193;SDS011;35029;50.804;12.866;2023-10-09T09:42:28;15.00;;;11.68;;
49193;SDS011;35029;50.804;12.866;2023-10-09T09:44:58;15.40;;;11.90;;
49193;SDS011;35029;50.804;12.866;2023-10-09T09:47:37;15.85;;;11.60;;
49193;SDS011;35029;50.804;12.866;2023-10-09T09:50:03;20.75;;;12.68;;
49193;SDS011;35029;50.804;12.866;2023-10-09T09:52:49;15.15;;;10.95;;
49193;SDS011;35029;50.804;12.866;2023-10-09T09:55:19;14.48;;;11.27;;
49193;SDS011;35029;50.804;12.866;2023-10-09T09:57:48;17.40;;;11.70;;
49193;SDS011;35029;50.804;12.866;2023-10-09T10:00:21;15.20;;;11.00;;
49193;SDS011;35029;50.804;12.866;2023-10-09T10:03:11;16.13;;;11.23;;
49193;SDS011;35029;50.804;12.866;2023-10-09T10:05:40;16.20;;;10.57;;
49193;SDS011;35029;50.804;12.866;2023-10-09T10:08:17;15.93;;;10.48;;
49193;SDS011;35029;50.804;12.866;2023-10-09T10:10:48;19.08;;;11.15;;
49193;SDS011;35029;50.804;12.866;2023-10-09T10:21:42;14.25;;;10.25;;
49193;SDS011;35029;50.804;12.866;2023-10-09T10:24:40;14.32;;;10.88;;
49193;SDS011;35029;50.804;12.866;2023-10-09T10:27:19;14.75;;;10.85;;
49193;SDS011;35029;50.804;12.866;2023-10-09T10:32:54;20.65;;;11.60;;
49193;SDS011;35029;50.804;12.866;2023-10-09T10:35:34;14.85;;;10.05;;
49193;SDS011;35029;50.804;12.866;2023-10-09T10:41:09;18.13;;;10.95;;
49193;SDS011;35029;50.804;12.866;2023-10-09T10:43:37;15.48;;;11.15;;
49193;SDS011;35029;50.804;12.866;2023-10-09T10:46:11;16.52;;;11.60;;
49193;SDS011;35029;50.804;12.866;2023-10-09T10:48:50;15.38;;;11.55;;
49193;SDS011;35029;50.804;12.866;2023-10-09T10:51:27;14.88;;;11.05;;
49193;SDS011;35029;50.804;12.866;2023-10-09T10:54:08;16.00;;;10.50;;
49193;SDS011;35029;50.804;12.866;2023-10-09T10:56:53;16.98;;;11.40;;
49193;SDS011;35029;50.804;12.866;2023-10-09T10:59:22;17.77;;;11.52;;
49193;SDS011;35029;50.804;12.866;2023-10-09T11:01:52;16.33;;;11.45;;
49193;SDS011;35029;50.804;12.866;2023-10-09T11:04:36;16.77;;;12.32;;
49193;SDS011;35029;50.804;12.866;2023-10-09T11:07:34;16.77;;;11.73;;
49193;SDS011;35029;50.804;12.866;2023-10-09T11:10:00;20.25;;;11.15;;
49193;SDS011;35029;50.804;12.866;2023-10-09T11:12:28;16.42;;;11.57;;
49193;SDS011;35029;50.804;12.866;2023-10-09T11:15:31;16.70;;;10.60;;
49193;SDS011;35029;50.804;12.866;2023-10-09T11:18:10;18.80;;;11.60;;
49193;SDS011;35029;50.804;12.866;2023-10-09T11:20:50;16.83;;;10.93;;
49193;SDS011;35029;50.804;12.866;2023-10-09T11:23:40;18.48;;;11.55;;
49193;SDS011;35029;50.804;12.866;2023-10-09T11:26:24;15.05;;;10.38;;
49193;SDS011;35029;50.804;12.866;2023-10-09T11:29:11;15.93;;;10.20;;
49193;SDS011;35029;50.804;12.866;2023-10-09T11:32:06;16.73;;;10.63;;
49193;SDS011;35029;50.804;12.866;2023-10-09T11:34:46;13.98;;;9.55;;
49193;SDS011;35029;50.804;12.866;2023-10-09T11:37:22;16.48;;;10.32;;
49193;SDS011;35029;50.804;12.866;2023-10-09T11:40:28;18.73;;;10.23;;
49193;SDS011;35029;50.804;12.866;2023-10-09T11:43:18;16.88;;;10.55;;
49193;SDS011;35029;50.804;12.866;2023-10-09T11:46:11;14.10;;;10.18;;
49193;SDS011;35029;50.804;12.866;2023-10-09T11:48:37;16.65;;;9.98;;
49193;SDS011;35029;50.804;12.866;2023-10-09T11:51:34;15.80;;;10.27;;
49193;SDS011;35029;50.804;12.866;2023-10-09T11:54:28;16.23;;;8.80;;
49193;SDS011;35029;50.804;12.866;2023-10-09T11:56:56;16.35;;;8.98;;
49193;SDS011;35029;50.804;12.866;2023-10-09T11:59:21;17.00;;;10.32;;
49193;SDS011;35029;50.804;12.866;2023-10-09T12:01:48;12.30;;;9.77;;
49193;SDS011;35029;50.804;12.866;2023-10-09T12:04:18;16.92;;;10.38;;
49193;SDS011;35029;50.804;12.866;2023-10-09T12:06:45;13.38;;;9.75;;
49193;SDS011;35029;50.804;12.866;2023-10-09T12:09:11;19.92;;;9.50;;
49193;SDS011;35029;50.804;12.866;2023-10-09T12:11:49;14.88;;;8.95;;
49193;SDS011;35029;50.804;12.866;2023-10-09T12:14:18;14.73;;;10.10;;
49193;SDS011;35029;50.804;12.866;2023-10-09T12:19:15;14.85;;;9.25;;
49193;SDS011;35029;50.804;12.866;2023-10-09T12:21:41;15.13;;;9.45;;
49193;SDS011;35029;50.804;12.866;2023-10-09T12:24:08;16.10;;;10.50;;
49193;SDS011;35029;50.804;12.866;2023-10-09T12:26:37;13.35;;;8.27;;
49193;SDS011;35029;50.804;12.866;2023-10-09T12:29:04;14.40;;;10.25;;
49193;SDS011;35029;50.804;12.866;2023-10-09T12:31:36;18.58;;;9.95;;
49193;SDS011;35029;50.804;12.866;2023-10-09T12:34:02;15.68;;;10.40;;
49193;SDS011;35029;50.804;12.866;2023-10-09T12:36:29;18.33;;;9.88;;
49193;SDS011;35029;50.804;12.866;2023-10-09T12:38:56;16.55;;;10.32;;
49193;SDS011;35029;50.804;12.866;2023-10-09T12:41:25;13.90;;;8.50;;
49193;SDS011;35029;50.804;12.866;2023-10-09T12:43:52;20.08;;;10.57;;
49193;SDS011;35029;50.804;12.866;2023-10-09T12:46:19;18.10;;;12.77;;
49193;SDS011;35029;50.804;12.866;2023-10-09T12:48:51;14.40;;;9.57;;
49193;SDS011;35029;50.804;12.866;2023-10-09T12:51:19;13.55;;;9.80;;
49193;SDS011;35029;50.804;12.866;2023-10-09T12:53:46;16.23;;;11.43;;
49193;SDS011;35029;50.804;12.866;2023-10-09T12:56:22;18.42;;;10.35;;
49193;SDS011;35029;50.804;12.866;2023-10-09T12:58:58;16.90;;;11.40;;
49193;SDS011;35029;50.804;12.866;2023-10-09T13:01:27;17.67;;;11.55;;
49193;SDS011;35029;50.804;12.866;2023-10-09T13:04:00;18.33;;;11.32;;
49193;SDS011;35029;50.804;12.866;2023-10-09T13:06:44;17.88;;;10.40;;
49193;SDS011;35029;50.804;12.866;2023-10-09T13:09:14;15.02;;;10.50;;
49193;SDS011;35029;50.804;12.866;2023-10-09T13:11:49;18.55;;;11.75;;
49193;SDS011;35029;50.804;12.866;2023-10-09T13:14:16;14.82;;;9.93;;
49193;SDS011;35029;50.804;12.866;2023-10-09T13:16:48;20.00;;;11.10;;
49193;SDS011;35029;50.804;12.866;2023-10-09T13:19:20;16.73;;;10.75;;
49193;SDS011;35029;50.804;12.866;2023-10-09T13:21:50;14.20;;;10.48;;
49193;SDS011;35029;50.804;12.866;2023-10-09T13:24:16;15.75;;;10.68;;
49193;SDS011;35029;50.804;12.866;2023-10-09T13:26:44;17.30;;;12.25;;
49193;SDS011;35029;50.804;12.866;2023-10-09T13:29:11;18.83;;;11.75;;
49193;SDS011;35029;50.804;12.866;2023-10-09T13:31:38;17.05;;;11.90;;
49193;SDS011;35029;50.804;12.866;2023-10-09T13:34:11;20.23;;;11.90;;
49193;SDS011;35029;50.804;12.866;2023-10-09T13:36:40;21.15;;;12.38;;
49193;SDS011;35029;50.804;12.866;2023-10-09T13:39:18;13.63;;;11.23;;
49193;SDS011;35029;50.804;12.866;2023-10-09T13:41:48;16.27;;;11.57;;
49193;SDS011;35029;50.804;12.866;2023-10-09T13:44:15;17.15;;;11.55;;
49193;SDS011;35029;50.804;12.866;2023-10-09T13:46:41;16.90;;;12.48;;
49193;SDS011;35029;50.804;12.866;2023-10-09T13:49:08;16.25;;;11.23;;
49193;SDS011;35029;50.804;12.866;2023-10-09T13:51:41;16.38;;;11.35;;
49193;SDS011;35029;50.804;12.866;2023-10-09T13:54:13;17.38;;;12.50;;
49193;SDS011;35029;50.804;12.866;2023-10-09T13:56:46;19.38;;;12.20;;
49193;SDS011;35029;50.804;12.866;2023-10-09T13:59:18;16.23;;;11.30;;
49193;SDS011;35029;50.804;12.866;2023-10-09T14:01:49;15.05;;;11.15;;
49193;SDS011;35029;50.804;12.866;2023-10-09T14:04:14;19.13;;;12.07;;
49193;SDS011;35029;50.804;12.866;2023-10-09T14:06:44;17.42;;;11.35;;
49193;SDS011;35029;50.804;12.866;2023-10-09T14:09:10;19.95;;;12.18;;
49193;SDS011;35029;50.804;12.866;2023-10-09T14:11:59;19.02;;;12.98;;
49193;SDS011;35029;50.804;12.866;2023-10-09T14:14:33;25.15;;;13.75;;
49193;SDS011;35029;50.804;12.866;2023-10-09T14:17:07;24.35;;;12.10;;
49193;SDS011;35029;50.804;12.866;2023-10-09T14:19:39;19.30;;;13.25;;
49193;SDS011;35029;50.804;12.866;2023-10-09T14:22:06;17.38;;;12.23;;
49193;SDS011;35029;50.804;12.866;2023-10-09T14:24:33;19.55;;;13.32;;
49193;SDS011;35029;50.804;12.866;2023-10-09T14:27:02;17.55;;;12.07;;
49193;SDS011;35029;50.804;12.866;2023-10-09T14:29:30;16.83;;;12.82;;
49193;SDS011;35029;50.804;12.866;2023-10-09T14:31:56;17.90;;;12.75;;
49193;SDS011;35029;50.804;12.866;2023-10-09T14:34:26;19.98;;;12.27;;
49193;SDS011;35029;50.804;12.866;2023-10-09T14:37:01;17.77;;;12.30;;
49193;SDS011;35029;50.804;12.866;2023-10-09T14:39:30;16.92;;;12.57;;
49193;SDS011;35029;50.804;12.866;2023-10-09T14:41:55;20.08;;;13.30;;
49193;SDS011;35029;50.804;12.866;2023-10-09T14:44:23;21.05;;;12.52;;
49193;SDS011;35029;50.804;12.866;2023-10-09T14:46:49;14.32;;;11.88;;
49193;SDS011;35029;50.804;12.866;2023-10-09T14:49:16;17.65;;;12.60;;
49193;SDS011;35029;50.804;12.866;2023-10-09T14:51:46;17.25;;;11.70;;
49193;SDS011;35029;50.804;12.866;2023-10-09T14:54:12;18.08;;;12.98;;
49193;SDS011;35029;50.804;12.866;2023-10-09T14:56:43;21.23;;;13.93;;
49193;SDS011;35029;50.804;12.866;2023-10-09T14:59:12;16.95;;;13.20;;
49193;SDS011;35029;50.804;12.866;2023-10-09T15:01:37;18.08;;;13.25;;
49193;SDS011;35029;50.804;12.866;2023-10-09T15:04:03;17.35;;;13.13;;
49193;SDS011;35029;50.804;12.866;2023-10-09T15:06:29;19.20;;;12.93;;
49193;SDS011;35029;50.804;12.866;2023-10-09T15:08:58;20.85;;;12.88;;
49193;SDS011;35029;50.804;12.866;2023-10-09T15:11:33;22.67;;;13.85;;
49193;SDS011;35029;50.804;12.866;2023-10-09T15:13:59;18.73;;;12.82;;
49193;SDS011;35029;50.804;12.866;2023-10-09T15:16:25;18.55;;;12.15;;
49193;SDS011;35029;50.804;12.866;2023-10-09T15:18:56;19.10;;;12.80;;
49193;SDS011;35029;50.804;12.866;2023-10-09T15:21:29;17.13;;;12.32;;
49193;SDS011;35029;50.804;12.866;2023-10-09T15:23:58;23.35;;;13.77;;